Time;durP1;ratioP1;P1;durP2;ratioP2;P2;SDS_P1;SDS_P2;PMS_P1;PMS_P2;Temp;Humidity;BMP_temperature;BMP_pressure;BME280_temperature;BME280_humidity;BME280_pressure;Samples;Min_cycle;Max_cycle;Signal;HPM_P1;HPM_P2
2022/04/06 00:00:51;;;;;;;38.50;25.30;;;;;;;;;;2085959;28;20294;-60
2022/04/06 00:01:51;;;;;;;41.45;26.55;;;;;;;;;;2094917;28;20258;-59
2022/04/06 00:02:52;;;;;;;40.88;25.10;;;;;;;;;;2095176;28;20634;-60
2022/04/06 00:03:52;;;;;;;36.97;25.08;;;;;;;;;;2090958;28;20834;-56
2022/04/06 00:04:52;;;;;;;32.70;23.52;;;;;;;;;;2087270;28;20606;-59
2022/04/06 00:05:53;;;;;;;36.35;25.90;;;;;;;;;;2081875;28;20242;-53
2022/04/06 00:06:53;;;;;;;41.17;25.67;;;;;;;;;;2095146;28;20604;-58
2022/04/06 00:07:53;;;;;;;33.17;23.75;;;;;;;;;;2085885;28;20246;-55
2022/04/06 00:08:54;;;;;;;35.38;24.27;;;;;;;;;;2087375;28;20256;-61
2022/04/06 00:09:54;;;;;;;34.40;22.75;;;;;;;;;;2094340;28;20171;-60
2022/04/06 00:10:54;;;;;;;32.35;24.52;;;;;;;;;;2090768;28;20172;-59
2022/04/06 00:11:55;;;;;;;39.65;24.30;;;;;;;;;;2086671;28;20603;-58
2022/04/06 00:12:55;;;;;;;35.95;26.05;;;;;;;;;;2084875;28;20163;-59
2022/04/06 00:13:56;;;;;;;34.85;24.05;;;;;;;;;;2095151;28;20629;-58
2022/04/06 00:14:56;;;;;;;35.90;25.40;;;;;;;;;;2092669;28;20179;-60
2022/04/06 00:15:56;;;;;;;35.72;25.25;;;;;;;;;;2095595;28;20175;-57
2022/04/06 00:17:02;;;;;;;39.83;24.33;;;;;;;;;;2088137;28;20175;-56
2022/04/06 00:18:03;;;;;;;32.95;25.33;;;;;;;;;;2085369;28;20173;-58
2022/04/06 00:19:03;;;;;;;39.05;25.38;;;;;;;;;;2089665;28;20203;-58
2022/04/06 00:20:04;;;;;;;37.72;26.17;;;;;;;;;;2080495;28;20175;-61
2022/04/06 00:21:04;;;;;;;35.00;25.10;;;;;;;;;;2080946;28;20658;-62
2022/04/06 00:22:05;;;;;;;36.40;25.25;;;;;;;;;;2087787;28;20179;-58
2022/04/06 00:23:05;;;;;;;38.42;25.75;;;;;;;;;;2072723;28;20664;-56
2022/04/06 00:24:06;;;;;;;36.00;24.38;;;;;;;;;;2082770;28;20179;-63
2022/04/06 00:25:07;;;;;;;39.15;26.00;;;;;;;;;;2085905;28;20692;-59
2022/04/06 00:26:07;;;;;;;36.58;24.50;;;;;;;;;;2080710;28;20681;-62
2022/04/06 00:27:07;;;;;;;41.05;25.90;;;;;;;;;;2096575;28;20261;-60
2022/04/06 00:28:07;;;;;;;36.80;26.05;;;;;;;;;;2096943;28;20659;-60
2022/04/06 00:29:08;;;;;;;33.65;23.38;;;;;;;;;;2097609;28;20217;-58
2022/04/06 00:30:08;;;;;;;36.38;25.67;;;;;;;;;;2096839;28;20203;-57
2022/04/06 00:31:08;;;;;;;36.33;26.10;;;;;;;;;;2098311;28;20574;-54
2022/04/06 00:32:09;;;;;;;32.75;25.55;;;;;;;;;;2085104;28;20696;-59
2022/04/06 00:33:09;;;;;;;38.33;25.58;;;;;;;;;;2092918;28;20289;-57
2022/04/06 00:34:09;;;;;;;37.72;27.48;;;;;;;;;;2091065;28;20183;-61
2022/04/06 00:35:42;;;;;;;37.33;25.20;;;;;;;;;;2089063;28;20191;-58
2022/04/06 00:36:35;;;;;;;38.33;25.55;;;;;;;;;;2087162;28;20597;-60
2022/04/06 00:37:36;;;;;;;36.95;24.83;;;;;;;;;;2097461;28;20174;-59
2022/04/06 00:38:36;;;;;;;36.95;27.67;;;;;;;;;;2096098;28;20214;-60
2022/04/06 00:39:36;;;;;;;35.10;24.13;;;;;;;;;;2096331;28;20658;-59
2022/04/06 00:40:37;;;;;;;36.70;26.88;;;;;;;;;;2087155;28;20344;-61
2022/04/06 00:41:39;;;;;;;40.42;26.67;;;;;;;;;;2083945;28;20184;-64
2022/04/06 00:42:39;;;;;;;38.58;27.10;;;;;;;;;;2089792;28;20262;-61
2022/04/06 00:43:39;;;;;;;36.38;26.52;;;;;;;;;;2082981;28;20184;-66
2022/04/06 00:44:39;;;;;;;42.53;28.60;;;;;;;;;;2082460;28;20263;-62
2022/04/06 00:45:40;;;;;;;38.20;25.77;;;;;;;;;;2089507;28;20168;-62
2022/04/06 00:46:45;;;;;;;35.95;27.08;;;;;;;;;;2093804;28;20258;-62
2022/04/06 00:47:46;;;;;;;38.90;26.67;;;;;;;;;;2082462;28;20796;-61
2022/04/06 00:48:46;;;;;;;39.53;28.23;;;;;;;;;;2089898;28;20302;-59
2022/04/06 00:49:47;;;;;;;36.72;25.88;;;;;;;;;;2090865;28;20596;-57
2022/04/06 00:50:47;;;;;;;35.53;25.02;;;;;;;;;;2090922;28;20608;-62
2022/04/06 00:51:48;;;;;;;40.60;27.25;;;;;;;;;;2093840;28;20193;-59
2022/04/06 00:52:49;;;;;;;34.15;26.33;;;;;;;;;;2090514;28;20171;-62
2022/04/06 00:53:49;;;;;;;37.13;26.42;;;;;;;;;;2093211;28;20183;-60
2022/04/06 00:54:50;;;;;;;37.42;25.30;;;;;;;;;;2093931;28;20588;-59
2022/04/06 00:55:50;;;;;;;37.20;27.42;;;;;;;;;;2096145;28;20182;-58
2022/04/06 00:56:50;;;;;;;41.88;25.73;;;;;;;;;;2097373;28;20194;-62
2022/04/06 00:57:51;;;;;;;35.13;25.65;;;;;;;;;;2086118;28;20576;-62
2022/04/06 00:58:51;;;;;;;38.35;26.05;;;;;;;;;;2086889;28;20171;-60
2022/04/06 00:59:51;;;;;;;35.45;23.95;;;;;;;;;;2091390;28;20179;-59
2022/04/06 01:00:51;;;;;;;39.42;27.52;;;;;;;;;;2095056;28;20580;-61
2022/04/06 01:01:52;;;;;;;34.38;24.90;;;;;;;;;;2096308;28;20175;-59
2022/04/06 01:02:52;;;;;;;32.65;25.00;;;;;;;;;;2097378;28;20183;-61
2022/04/06 01:03:53;;;;;;;35.03;23.85;;;;;;;;;;2080288;28;20172;-60
2022/04/06 01:04:53;;;;;;;36.85;24.85;;;;;;;;;;2080697;28;20172;-62
2022/04/06 01:05:53;;;;;;;36.10;25.80;;;;;;;;;;2097455;28;20251;-62
2022/04/06 01:06:53;;;;;;;35.15;22.95;;;;;;;;;;2097963;28;20245;-61
2022/04/06 01:08:00;;;;;;;33.83;25.55;;;;;;;;;;2089997;28;20176;-59
2022/04/06 01:09:01;;;;;;;30.50;23.17;;;;;;;;;;2089518;28;20164;-63
2022/04/06 01:10:01;;;;;;;35.75;24.13;;;;;;;;;;2080685;28;20171;-54
2022/04/06 01:11:01;;;;;;;35.67;26.27;;;;;;;;;;2081354;28;20175;-64
2022/04/06 01:12:03;;;;;;;38.05;25.30;;;;;;;;;;2072492;28;20743;-61
2022/04/06 01:13:04;;;;;;;34.53;22.95;;;;;;;;;;2073028;28;20231;-56
2022/04/06 01:14:06;;;;;;;35.95;25.35;;;;;;;;;;2089408;28;20155;-60
2022/04/06 01:15:07;;;;;;;32.63;23.42;;;;;;;;;;2091042;28;20640;-60
2022/04/06 01:16:07;;;;;;;33.22;24.20;;;;;;;;;;2088700;28;20230;-60
2022/04/06 01:17:08;;;;;;;29.60;24.08;;;;;;;;;;2079358;28;20164;-59
2022/04/06 01:18:09;;;;;;;38.55;25.35;;;;;;;;;;2080895;28;20191;-62
2022/04/06 01:19:09;;;;;;;35.25;24.38;;;;;;;;;;2091227;28;20163;-53
2022/04/06 01:20:10;;;;;;;29.67;22.80;;;;;;;;;;2097966;28;20258;-59
2022/04/06 01:21:12;;;;;;;30.25;19.48;;;;;;;;;;2087183;28;20212;-60
2022/04/06 01:22:13;;;;;;;40.45;24.73;;;;;;;;;;2085216;28;20640;-61
2022/04/06 01:23:13;;;;;;;31.77;23.38;;;;;;;;;;2086571;28;20187;-60
2022/04/06 01:24:14;;;;;;;31.92;23.80;;;;;;;;;;2073906;28;20329;-58
2022/04/06 01:25:14;;;;;;;33.00;22.02;;;;;;;;;;2078210;28;20210;-62
2022/04/06 01:26:14;;;;;;;30.15;22.90;;;;;;;;;;2080620;28;20243;-58
2022/04/06 01:27:15;;;;;;;29.30;21.75;;;;;;;;;;2092153;28;20520;-62
2022/04/06 01:28:15;;;;;;;29.08;21.50;;;;;;;;;;2089125;28;20206;-63
2022/04/06 01:29:15;;;;;;;35.50;23.42;;;;;;;;;;2078182;28;20744;-61
2022/04/06 01:30:16;;;;;;;30.30;22.00;;;;;;;;;;2080741;28;20191;-62
2022/04/06 01:31:16;;;;;;;39.03;23.13;;;;;;;;;;2091990;28;20171;-61
2022/04/06 01:32:18;;;;;;;37.08;23.80;;;;;;;;;;2089442;28;20553;-61
2022/04/06 01:33:18;;;;;;;28.13;20.17;;;;;;;;;;2077839;28;20169;-58
2022/04/06 01:34:19;;;;;;;32.42;21.38;;;;;;;;;;2083343;28;20191;-66
2022/04/06 01:35:19;;;;;;;33.05;20.67;;;;;;;;;;2097422;28;20178;-60
2022/04/06 01:36:20;;;;;;;34.38;21.33;;;;;;;;;;2089293;28;20214;-58
2022/04/06 01:37:20;;;;;;;28.55;19.95;;;;;;;;;;2089325;28;20249;-61
2022/04/06 01:38:20;;;;;;;31.13;22.55;;;;;;;;;;2085094;28;20194;-58
2022/04/06 01:39:21;;;;;;;42.85;22.05;;;;;;;;;;2091602;28;20221;-58
2022/04/06 01:40:21;;;;;;;31.92;20.02;;;;;;;;;;2096336;28;20190;-60
2022/04/06 01:41:21;;;;;;;29.75;20.70;;;;;;;;;;2097652;28;20201;-64
2022/04/06 01:42:21;;;;;;;29.17;21.20;;;;;;;;;;2097964;28;20183;-59
2022/04/06 01:43:22;;;;;;;26.05;19.75;;;;;;;;;;2097757;28;20170;-60
2022/04/06 01:44:22;;;;;;;32.20;21.75;;;;;;;;;;2097651;28;20167;-57
2022/04/06 01:45:22;;;;;;;29.98;19.30;;;;;;;;;;2098015;28;20178;-60
2022/04/06 01:46:23;;;;;;;28.13;21.60;;;;;;;;;;2088947;28;20270;-60
2022/04/06 01:47:23;;;;;;;28.15;20.55;;;;;;;;;;2080704;28;20334;-61
2022/04/06 01:48:23;;;;;;;32.50;18.50;;;;;;;;;;2082704;28;20188;-62
2022/04/06 01:52:15;;;;;;;28.73;20.10;;;;;;;;;;2098561;28;20171;-63
2022/04/06 01:53:15;;;;;;;35.15;20.83;;;;;;;;;;2098346;28;20191;-62
2022/04/06 01:54:15;;;;;;;27.50;19.25;;;;;;;;;;2088773;28;20214;-62
2022/04/06 01:55:15;;;;;;;31.25;20.35;;;;;;;;;;2089074;28;20529;-60
2022/04/06 01:56:16;;;;;;;32.70;21.80;;;;;;;;;;2087547;28;20192;-62
2022/04/06 01:57:16;;;;;;;27.88;19.88;;;;;;;;;;2096225;28;20336;-62
2022/04/06 01:58:17;;;;;;;32.92;20.38;;;;;;;;;;2093426;28;20199;-61
2022/04/06 01:59:17;;;;;;;27.30;19.92;;;;;;;;;;2095541;28;20255;-61
2022/04/06 02:00:18;;;;;;;27.88;19.25;;;;;;;;;;2091419;28;20175;-62
2022/04/06 02:01:18;;;;;;;29.30;18.00;;;;;;;;;;2085753;28;20179;-60
2022/04/06 02:02:19;;;;;;;22.15;17.60;;;;;;;;;;2082899;28;20207;-64
2022/04/06 02:03:20;;;;;;;26.17;19.42;;;;;;;;;;2090055;28;20228;-62
2022/04/06 02:04:20;;;;;;;27.45;19.83;;;;;;;;;;2089258;28;20172;-61
2022/04/06 02:05:21;;;;;;;24.88;20.45;;;;;;;;;;2089867;28;20191;-59
2022/04/06 02:06:22;;;;;;;28.08;19.75;;;;;;;;;;2089612;28;20188;-63
2022/04/06 02:07:23;;;;;;;30.08;20.50;;;;;;;;;;2097557;28;20294;-61
2022/04/06 02:08:24;;;;;;;28.20;18.20;;;;;;;;;;2096338;28;20566;-62
2022/04/06 02:09:24;;;;;;;31.95;20.30;;;;;;;;;;2095881;28;20286;-62
2022/04/06 02:10:25;;;;;;;29.42;18.67;;;;;;;;;;2089549;28;20179;-62
2022/04/06 02:11:25;;;;;;;28.65;18.83;;;;;;;;;;2096435;28;20373;-66
2022/04/06 02:12:26;;;;;;;24.65;17.63;;;;;;;;;;2097653;28;20203;-61
2022/04/06 02:13:26;;;;;;;24.58;18.10;;;;;;;;;;2096348;28;20167;-63
2022/04/06 02:14:27;;;;;;;28.52;19.17;;;;;;;;;;2088472;28;20179;-60
2022/04/06 02:15:27;;;;;;;27.27;18.52;;;;;;;;;;2080883;28;20275;-59
2022/04/06 02:16:27;;;;;;;21.65;15.32;;;;;;;;;;2094137;28;20294;-63
2022/04/06 02:17:28;;;;;;;28.35;19.35;;;;;;;;;;2091734;28;20175;-64
2022/04/06 02:18:29;;;;;;;31.20;16.85;;;;;;;;;;2092712;28;20174;-60
2022/04/06 02:19:29;;;;;;;24.73;17.50;;;;;;;;;;2099318;28;20190;-58
2022/04/06 02:20:29;;;;;;;27.38;17.52;;;;;;;;;;2093774;28;20179;-61
2022/04/06 02:21:30;;;;;;;29.70;18.42;;;;;;;;;;2095572;28;20182;-63
2022/04/06 02:22:30;;;;;;;29.42;18.33;;;;;;;;;;2096249;28;20663;-62
2022/04/06 02:23:30;;;;;;;28.27;17.77;;;;;;;;;;2098127;28;20173;-62
2022/04/06 02:24:31;;;;;;;26.33;18.27;;;;;;;;;;2093632;28;20183;-62
2022/04/06 02:25:31;;;;;;;25.02;17.70;;;;;;;;;;2081065;28;20255;-63
2022/04/06 02:26:31;;;;;;;26.45;18.58;;;;;;;;;;2088882;28;20719;-62
2022/04/06 02:27:32;;;;;;;26.73;17.35;;;;;;;;;;2096860;28;20171;-61
2022/04/06 02:28:32;;;;;;;27.05;18.90;;;;;;;;;;2095795;28;20213;-65
2022/04/06 02:29:32;;;;;;;27.23;18.00;;;;;;;;;;2097778;28;20201;-60
2022/04/06 02:30:33;;;;;;;28.23;17.70;;;;;;;;;;2093623;28;20660;-60
2022/04/06 02:31:34;;;;;;;25.00;18.80;;;;;;;;;;2097335;28;20212;-61
2022/04/06 02:32:34;;;;;;;24.15;16.00;;;;;;;;;;2095264;28;20212;-59
2022/04/06 02:33:34;;;;;;;21.00;15.93;;;;;;;;;;2089004;28;20190;-60
2022/04/06 02:34:34;;;;;;;27.33;15.73;;;;;;;;;;2093684;28;20171;-63
2022/04/06 02:35:35;;;;;;;22.58;16.63;;;;;;;;;;2093734;28;20176;-63
2022/04/06 02:36:35;;;;;;;26.75;16.98;;;;;;;;;;2089852;28;20203;-63
2022/04/06 02:37:35;;;;;;;24.67;16.98;;;;;;;;;;2097241;28;20159;-60
2022/04/06 02:38:39;;;;;;;22.10;14.80;;;;;;;;;;2090528;28;20562;-61
2022/04/06 02:39:39;;;;;;;20.65;14.35;;;;;;;;;;2097843;28;20198;-61
2022/04/06 02:40:39;;;;;;;29.90;15.23;;;;;;;;;;2094281;28;20599;-64
2022/04/06 02:41:39;;;;;;;24.17;15.40;;;;;;;;;;2081919;28;20242;-61
2022/04/06 02:42:40;;;;;;;26.75;15.18;;;;;;;;;;2086775;28;20179;-61
2022/04/06 02:43:40;;;;;;;17.83;13.77;;;;;;;;;;2097848;28;20274;-61
2022/04/06 02:44:40;;;;;;;18.40;14.52;;;;;;;;;;2086917;28;20180;-58
2022/04/06 02:45:41;;;;;;;26.35;14.98;;;;;;;;;;2089988;28;20309;-60
2022/04/06 02:46:42;;;;;;;22.98;13.07;;;;;;;;;;2095880;28;20172;-64
2022/04/06 02:47:43;;;;;;;22.88;13.65;;;;;;;;;;2089979;28;20215;-62
2022/04/06 02:48:43;;;;;;;24.27;14.52;;;;;;;;;;2091475;28;20203;-60
2022/04/06 02:49:43;;;;;;;19.45;13.85;;;;;;;;;;2096803;28;20167;-61
2022/04/06 02:50:43;;;;;;;19.98;14.80;;;;;;;;;;2096970;28;20182;-60
2022/04/06 02:51:44;;;;;;;19.67;12.88;;;;;;;;;;2090601;28;20249;-59
2022/04/06 02:52:44;;;;;;;22.88;13.27;;;;;;;;;;2098455;28;20175;-61
2022/04/06 02:53:44;;;;;;;22.63;14.93;;;;;;;;;;2097155;28;20541;-60
2022/04/06 02:54:44;;;;;;;24.23;13.90;;;;;;;;;;2097509;28;20220;-59
2022/04/06 02:55:45;;;;;;;22.77;14.70;;;;;;;;;;2082615;28;20188;-62
2022/04/06 02:56:45;;;;;;;18.33;13.75;;;;;;;;;;2080430;28;20168;-58
2022/04/06 02:57:46;;;;;;;22.98;13.75;;;;;;;;;;2082195;28;20622;-64
2022/04/06 02:58:46;;;;;;;18.63;11.70;;;;;;;;;;2098449;28;20236;-62
2022/04/06 02:59:46;;;;;;;16.77;12.27;;;;;;;;;;2097742;28;20262;-58
2022/04/06 03:00:46;;;;;;;18.13;12.93;;;;;;;;;;2097176;28;20282;-61
2022/04/06 03:01:47;;;;;;;19.55;12.65;;;;;;;;;;2093719;28;20523;-62
2022/04/06 03:02:47;;;;;;;19.45;12.80;;;;;;;;;;2081653;28;20188;-60
2022/04/06 03:03:47;;;;;;;18.17;12.45;;;;;;;;;;2083401;28;20251;-57
2022/04/06 03:04:47;;;;;;;24.15;13.52;;;;;;;;;;2096415;28;20711;-61
2022/04/06 03:05:48;;;;;;;18.02;11.90;;;;;;;;;;2092179;28;20175;-62
2022/04/06 03:06:48;;;;;;;17.85;12.95;;;;;;;;;;2095505;28;20548;-60
2022/04/06 03:07:48;;;;;;;23.27;12.85;;;;;;;;;;2098546;28;20224;-60
2022/04/06 03:08:48;;;;;;;18.63;12.25;;;;;;;;;;2087717;28;20290;-63
2022/04/06 03:09:49;;;;;;;19.30;12.98;;;;;;;;;;2079046;28;20193;-62
2022/04/06 03:10:49;;;;;;;20.77;12.95;;;;;;;;;;2087778;28;20640;-59
2022/04/06 03:11:49;;;;;;;20.88;12.93;;;;;;;;;;2095610;28;20163;-59
2022/04/06 03:12:49;;;;;;;18.02;11.55;;;;;;;;;;2096702;28;20171;-59
2022/04/06 03:13:53;;;;;;;18.40;11.85;;;;;;;;;;2092738;28;20221;-62
2022/04/06 03:14:53;;;;;;;19.15;13.20;;;;;;;;;;2096087;28;20167;-65
2022/04/06 03:15:53;;;;;;;18.85;12.20;;;;;;;;;;2094378;28;20187;-55
2022/04/06 03:16:53;;;;;;;21.23;13.45;;;;;;;;;;2093084;28;20290;-60
2022/04/06 03:17:53;;;;;;;16.15;11.50;;;;;;;;;;2098172;28;20247;-60
2022/04/06 03:18:54;;;;;;;13.68;10.73;;;;;;;;;;2097202;28;20173;-62
2022/04/06 03:19:54;;;;;;;16.95;11.82;;;;;;;;;;2089400;28;20186;-61
2022/04/06 03:20:54;;;;;;;15.45;10.60;;;;;;;;;;2086503;28;20172;-62
2022/04/06 03:21:54;;;;;;;17.63;12.70;;;;;;;;;;2089842;28;20188;-59
2022/04/06 03:22:55;;;;;;;15.20;10.23;;;;;;;;;;2096206;28;20307;-63
2022/04/06 03:23:55;;;;;;;21.38;13.10;;;;;;;;;;2097275;28;20167;-59
2022/04/06 03:24:55;;;;;;;19.08;12.27;;;;;;;;;;2088647;28;20241;-60
2022/04/06 03:25:55;;;;;;;23.08;13.35;;;;;;;;;;2081489;28;20543;-62
2022/04/06 03:26:56;;;;;;;21.38;11.63;;;;;;;;;;2087099;28;20620;-62
2022/04/06 03:27:56;;;;;;;25.73;13.80;;;;;;;;;;2098569;28;20182;-61
2022/04/06 03:28:57;;;;;;;17.00;12.88;;;;;;;;;;2096940;28;20214;-63
2022/04/06 03:29:57;;;;;;;18.98;12.40;;;;;;;;;;2095239;28;20198;-61
2022/04/06 03:30:58;;;;;;;17.83;12.80;;;;;;;;;;2097422;28;20193;-62
2022/04/06 03:31:58;;;;;;;21.20;13.35;;;;;;;;;;2095444;28;20608;-64
2022/04/06 03:32:58;;;;;;;16.65;12.70;;;;;;;;;;2090023;28;20539;-58
2022/04/06 03:33:58;;;;;;;25.98;12.88;;;;;;;;;;2092516;28;20166;-60
2022/04/06 03:34:59;;;;;;;19.02;12.65;;;;;;;;;;2095014;28;20198;-57
2022/04/06 03:35:59;;;;;;;19.10;13.88;;;;;;;;;;2087377;28;20270;-59
2022/04/06 03:36:59;;;;;;;20.17;12.93;;;;;;;;;;2085718;28;20656;-62
2022/04/06 03:37:59;;;;;;;21.10;13.48;;;;;;;;;;2084621;28;20183;-62
2022/04/06 03:39:00;;;;;;;19.02;13.18;;;;;;;;;;2084550;28;20180;-61
2022/04/06 03:40:01;;;;;;;20.30;13.98;;;;;;;;;;2097648;28;20194;-61
2022/04/06 03:41:01;;;;;;;26.98;13.73;;;;;;;;;;2098072;28;20183;-57
2022/04/06 03:42:01;;;;;;;21.58;12.40;;;;;;;;;;2094647;28;20179;-59
2022/04/06 03:43:02;;;;;;;20.40;13.70;;;;;;;;;;2085375;28;20703;-60
2022/04/06 03:44:02;;;;;;;20.13;14.73;;;;;;;;;;2085793;28;20567;-60
2022/04/06 03:45:03;;;;;;;20.33;13.68;;;;;;;;;;2098100;28;20167;-63
2022/04/06 03:46:03;;;;;;;19.27;13.23;;;;;;;;;;2088801;28;20584;-56
2022/04/06 03:47:03;;;;;;;23.92;14.20;;;;;;;;;;2083976;28;20579;-62
2022/04/06 03:48:04;;;;;;;22.30;13.93;;;;;;;;;;2097491;28;20236;-62
2022/04/06 03:49:04;;;;;;;21.90;13.82;;;;;;;;;;2095135;28;20648;-62
2022/04/06 03:50:04;;;;;;;22.50;14.95;;;;;;;;;;2092505;28;20214;-60
2022/04/06 03:51:04;;;;;;;23.38;14.90;;;;;;;;;;2094006;28;20187;-60
2022/04/06 03:52:05;;;;;;;18.90;14.43;;;;;;;;;;2093677;28;20199;-61
2022/04/06 03:53:05;;;;;;;24.38;15.07;;;;;;;;;;2087631;28;20249;-63
2022/04/06 03:54:06;;;;;;;29.25;15.35;;;;;;;;;;2085064;28;20531;-60
2022/04/06 03:55:07;;;;;;;21.25;14.75;;;;;;;;;;2081434;28;20176;-59
2022/04/06 03:56:07;;;;;;;23.92;15.82;;;;;;;;;;2089618;28;20195;-63
2022/04/06 03:57:07;;;;;;;29.65;16.83;;;;;;;;;;2096874;28;20635;-62
2022/04/06 03:58:07;;;;;;;25.83;16.73;;;;;;;;;;2080929;28;20199;-60
2022/04/06 03:59:08;;;;;;;27.67;16.63;;;;;;;;;;2079981;28;20212;-62
2022/04/06 04:00:08;;;;;;;25.23;16.55;;;;;;;;;;2093017;28;20176;-62
2022/04/06 04:01:09;;;;;;;22.45;15.38;;;;;;;;;;2090050;28;20230;-60
2022/04/06 04:02:10;;;;;;;26.63;17.70;;;;;;;;;;2097516;28;20171;-63
2022/04/06 04:03:10;;;;;;;26.10;17.30;;;;;;;;;;2092866;28;20179;-64
2022/04/06 04:04:10;;;;;;;28.60;16.88;;;;;;;;;;2080105;28;20309;-62
2022/04/06 04:05:11;;;;;;;34.40;18.75;;;;;;;;;;2082107;28;20183;-60
2022/04/06 04:06:11;;;;;;;28.17;18.27;;;;;;;;;;2089698;28;20242;-62
2022/04/06 04:07:11;;;;;;;28.05;18.63;;;;;;;;;;2097342;28;20170;-63
2022/04/06 04:08:11;;;;;;;27.58;17.90;;;;;;;;;;2083940;28;20242;-60
2022/04/06 04:09:11;;;;;;;32.70;18.50;;;;;;;;;;2086556;28;20277;-60
2022/04/06 04:10:14;;;;;;;40.60;19.35;;;;;;;;;;2093304;28;20259;-62
2022/04/06 04:11:14;;;;;;;29.55;19.45;;;;;;;;;;2090957;28;20698;-60
2022/04/06 04:12:15;;;;;;;32.03;19.58;;;;;;;;;;2098211;28;20166;-61
2022/04/06 04:13:15;;;;;;;31.63;20.27;;;;;;;;;;2094114;28;20186;-61
2022/04/06 04:14:15;;;;;;;28.30;18.80;;;;;;;;;;2085563;28;20682;-60
2022/04/06 04:15:16;;;;;;;27.50;18.45;;;;;;;;;;2088188;28;20367;-60
2022/04/06 04:17:25;;;;;;;32.30;19.73;;;;;;;;;;2075788;28;20223;-55
2022/04/06 04:18:26;;;;;;;56.70;19.05;;;;;;;;;;2080557;28;20680;-55
2022/04/06 04:19:26;;;;;;;31.63;20.67;;;;;;;;;;2078505;28;20184;-52
2022/04/06 04:20:26;;;;;;;37.28;21.02;;;;;;;;;;2089600;28;20179;-52
2022/04/06 04:21:32;;;;;;;37.25;22.02;;;;;;;;;;2087834;28;20175;-52
2022/04/06 04:22:33;;;;;;;33.22;19.48;;;;;;;;;;2089764;28;20164;-56
2022/04/06 04:23:33;;;;;;;30.88;20.55;;;;;;;;;;2087881;28;20270;-54
2022/04/06 04:24:33;;;;;;;32.10;20.45;;;;;;;;;;2082197;28;20180;-55
2022/04/06 04:25:33;;;;;;;33.13;21.75;;;;;;;;;;2085532;28;20223;-54
2022/04/06 04:26:37;;;;;;;29.48;20.52;;;;;;;;;;2083602;28;20229;-56
2022/04/06 04:27:37;;;;;;;36.63;23.50;;;;;;;;;;2091387;28;20529;-58
2022/04/06 04:28:37;;;;;;;30.45;21.25;;;;;;;;;;2090945;28;20246;-53
2022/04/06 04:29:38;;;;;;;30.63;20.55;;;;;;;;;;2091297;28;20172;-57
2022/04/06 04:30:38;;;;;;;33.17;23.63;;;;;;;;;;2091373;28;20172;-56
2022/04/06 04:31:39;;;;;;;34.85;20.70;;;;;;;;;;2083270;28;20165;-57
2022/04/06 04:32:39;;;;;;;30.88;21.45;;;;;;;;;;2081567;28;20259;-56
2022/04/06 04:33:39;;;;;;;35.40;21.90;;;;;;;;;;2079464;28;20267;-55
2022/04/06 04:34:39;;;;;;;30.70;20.83;;;;;;;;;;2081155;28;20344;-55
2022/04/06 04:35:40;;;;;;;39.80;21.80;;;;;;;;;;2074428;28;20199;-58
2022/04/06 04:36:40;;;;;;;31.83;20.48;;;;;;;;;;2074171;28;20192;-57
2022/04/06 04:37:40;;;;;;;36.13;21.80;;;;;;;;;;2084423;28;20229;-58
2022/04/06 04:38:42;;;;;;;25.75;19.70;;;;;;;;;;2091987;28;20171;-55
2022/04/06 04:39:42;;;;;;;33.20;21.92;;;;;;;;;;2091711;28;20175;-57
2022/04/06 04:40:42;;;;;;;31.90;19.92;;;;;;;;;;2082268;28;20247;-56
2022/04/06 04:41:42;;;;;;;35.28;20.02;;;;;;;;;;2074076;28;20316;-56
2022/04/06 04:42:43;;;;;;;30.25;21.33;;;;;;;;;;2082555;28;20215;-55
2022/04/06 04:43:43;;;;;;;27.67;20.05;;;;;;;;;;2091472;28;20525;-53
2022/04/06 04:44:44;;;;;;;29.00;19.67;;;;;;;;;;2084061;28;20180;-57
2022/04/06 04:45:44;;;;;;;26.75;17.15;;;;;;;;;;2082499;28;20175;-56
2022/04/06 04:46:44;;;;;;;28.23;19.05;;;;;;;;;;2081670;28;20183;-56
2022/04/06 04:47:45;;;;;;;28.73;19.13;;;;;;;;;;2083469;28;20176;-56
2022/04/06 04:48:45;;;;;;;30.55;18.38;;;;;;;;;;2086744;28;20195;-55
2022/04/06 04:49:45;;;;;;;27.52;18.83;;;;;;;;;;2088393;28;20273;-55
2022/04/06 04:50:46;;;;;;;24.58;16.25;;;;;;;;;;2085589;28;20192;-52
2022/04/06 04:51:46;;;;;;;26.00;17.95;;;;;;;;;;2088568;28;20266;-55
2022/04/06 04:52:46;;;;;;;25.73;17.85;;;;;;;;;;2089323;28;20179;-53
2022/04/06 04:53:46;;;;;;;27.33;18.10;;;;;;;;;;2084342;28;20511;-56
2022/04/06 04:54:47;;;;;;;22.95;16.25;;;;;;;;;;2082750;28;20816;-57
2022/04/06 04:55:47;;;;;;;23.92;16.85;;;;;;;;;;2088023;28;20163;-54
2022/04/06 04:56:47;;;;;;;21.48;15.13;;;;;;;;;;2088783;28;20222;-53
2022/04/06 04:57:48;;;;;;;22.63;14.23;;;;;;;;;;2087044;28;20221;-54
2022/04/06 04:58:48;;;;;;;21.17;15.20;;;;;;;;;;2086941;28;20196;-52
2022/04/06 04:59:52;;;;;;;27.20;16.95;;;;;;;;;;2082222;28;20172;-55
2022/04/06 05:00:54;;;;;;;23.75;14.95;;;;;;;;;;2086654;28;20584;-51
2022/04/06 05:01:54;;;;;;;23.10;15.20;;;;;;;;;;2081434;28;20569;-56
2022/04/06 05:02:54;;;;;;;25.08;15.38;;;;;;;;;;2081373;28;20199;-55
2022/04/06 05:03:54;;;;;;;23.00;15.43;;;;;;;;;;2084035;28;20186;-54
2022/04/06 05:04:55;;;;;;;19.33;13.82;;;;;;;;;;2089283;28;20274;-53
2022/04/06 05:05:56;;;;;;;20.98;13.70;;;;;;;;;;2088331;28;20204;-55
2022/04/06 05:06:56;;;;;;;22.98;15.70;;;;;;;;;;2081609;28;20311;-56
2022/04/06 05:07:58;;;;;;;20.63;12.15;;;;;;;;;;2077622;28;20227;-55
2022/04/06 05:08:59;;;;;;;21.27;14.65;;;;;;;;;;2081857;28;20210;-54
2022/04/06 05:09:59;;;;;;;17.90;14.60;;;;;;;;;;2082401;28;20165;-55
2022/04/06 05:10:59;;;;;;;22.15;14.20;;;;;;;;;;2086335;28;20203;-55
2022/04/06 05:11:59;;;;;;;21.60;14.75;;;;;;;;;;2081525;28;20176;-52
2022/04/06 05:13:00;;;;;;;23.90;14.70;;;;;;;;;;2081298;28;20234;-52
2022/04/06 05:14:00;;;;;;;18.77;13.48;;;;;;;;;;2082823;28;20191;-55
2022/04/06 05:15:01;;;;;;;16.67;11.80;;;;;;;;;;2081078;28;20164;-54
2022/04/06 05:16:01;;;;;;;15.52;13.80;;;;;;;;;;2084831;28;20195;-53
2022/04/06 05:17:02;;;;;;;19.33;14.02;;;;;;;;;;2088704;28;20203;-53
2022/04/06 05:18:02;;;;;;;20.52;13.75;;;;;;;;;;2085022;28;20259;-54
2022/04/06 05:19:03;;;;;;;25.83;13.70;;;;;;;;;;2081334;28;20240;-53
2022/04/06 05:20:04;;;;;;;15.98;12.52;;;;;;;;;;2084571;28;20279;-56
2022/04/06 05:21:07;;;;;;;16.45;13.63;;;;;;;;;;2081176;28;20730;-56
2022/04/06 05:22:07;;;;;;;23.02;14.00;;;;;;;;;;2072567;28;20554;-55
2022/04/06 05:23:08;;;;;;;18.48;13.50;;;;;;;;;;2080479;28;20180;-55
2022/04/06 05:24:08;;;;;;;17.23;12.73;;;;;;;;;;2087950;28;20206;-53
2022/04/06 05:25:09;;;;;;;18.10;13.02;;;;;;;;;;2083068;28;20189;-54
2022/04/06 05:26:09;;;;;;;19.17;13.98;;;;;;;;;;2085893;28;20180;-55
2022/04/06 05:27:09;;;;;;;22.02;11.73;;;;;;;;;;2087863;28;20203;-53
2022/04/06 05:28:10;;;;;;;15.88;11.18;;;;;;;;;;2075902;28;20187;-54
2022/04/06 05:29:10;;;;;;;16.35;12.48;;;;;;;;;;2076073;28;20173;-54
2022/04/06 05:30:11;;;;;;;13.80;11.95;;;;;;;;;;2087719;28;20171;-58
2022/04/06 05:31:12;;;;;;;15.55;12.02;;;;;;;;;;2086801;28;20167;-55
2022/04/06 05:32:12;;;;;;;16.95;10.77;;;;;;;;;;2089211;28;20611;-55
2022/04/06 05:33:12;;;;;;;16.95;11.57;;;;;;;;;;2089620;28;20175;-54
2022/04/06 05:34:12;;;;;;;19.65;12.82;;;;;;;;;;2091146;28;20246;-56
2022/04/06 05:35:13;;;;;;;14.77;11.60;;;;;;;;;;2092281;28;20187;-53
2022/04/06 05:36:13;;;;;;;14.65;12.00;;;;;;;;;;2087793;28;20182;-57
2022/04/06 05:37:13;;;;;;;16.80;9.65;;;;;;;;;;2088701;28;20675;-57
2022/04/06 05:38:14;;;;;;;14.95;10.57;;;;;;;;;;2088900;28;20187;-54
2022/04/06 05:39:14;;;;;;;17.52;10.70;;;;;;;;;;2090819;28;20182;-57
2022/04/06 05:40:15;;;;;;;15.93;10.15;;;;;;;;;;2092648;28;20172;-59
2022/04/06 05:41:16;;;;;;;17.17;12.50;;;;;;;;;;2086007;28;20192;-56
2022/04/06 05:42:16;;;;;;;14.77;11.45;;;;;;;;;;2083241;28;20196;-57
2022/04/06 05:43:16;;;;;;;16.83;12.27;;;;;;;;;;2090676;28;20187;-54
2022/04/06 05:44:16;;;;;;;16.30;12.52;;;;;;;;;;2082124;28;20186;-55
2022/04/06 05:45:17;;;;;;;15.05;10.95;;;;;;;;;;2081559;28;20913;-58
2022/04/06 05:46:17;;;;;;;18.13;11.27;;;;;;;;;;2090814;28;20188;-56
2022/04/06 05:47:17;;;;;;;18.27;11.50;;;;;;;;;;2087161;28;20216;-58
2022/04/06 05:48:17;;;;;;;16.58;11.73;;;;;;;;;;2082570;28;20602;-57
2022/04/06 05:49:18;;;;;;;13.88;10.05;;;;;;;;;;2078663;28;20207;-56
2022/04/06 05:50:18;;;;;;;15.85;9.77;;;;;;;;;;2083191;28;20250;-58
2022/04/06 05:51:19;;;;;;;17.38;10.75;;;;;;;;;;2090960;28;20163;-57
2022/04/06 05:52:19;;;;;;;16.30;11.10;;;;;;;;;;2092783;28;20698;-56
2022/04/06 05:53:19;;;;;;;12.77;11.32;;;;;;;;;;2088832;28;20188;-53
2022/04/06 05:54:19;;;;;;;17.13;10.98;;;;;;;;;;2087027;28;20170;-54
2022/04/06 05:55:20;;;;;;;14.82;9.88;;;;;;;;;;2089783;28;20179;-52
2022/04/06 05:56:20;;;;;;;14.20;10.00;;;;;;;;;;2085891;28;20172;-52